Terminal Aerodrome Forecast
Issued by NWS

Home | Current Version | Previous Version | Text Only | Print | Product List | Glossary On
Versions: 1 2 3 4 5 6 7 8 9 10 11 12 13 14 15 16 17 18 19
000
FTUS42 KJAX 051841 AAA
TAFCRG
TAF AMD
KCRG 051841Z 0519/0618 07014KT P6SM BKN040
     FM060100 05007KT P6SM SCT040 BKN250
     FM060900 03007KT P6SM VCSH BKN040
     FM061500 05015G25KT P6SM VCSH BKN025=

USA.gov is the U.S. government's official web portal to all federal, state and local government web resources and services.